Terminal Aerodrome Forecast
Issued by NWS

Home | Current Version | Previous Version | Text Only | Print | Product List | Glossary On
Versions: 1 2 3 4 5 6 7 8 9 10 11 12 13 14 15 16 17 18 19 20 21 22 23 24 25 26
000
FTUS46 KMTR 101431 AAA
TAFSFO
TAF AMD
KSFO 101431Z 1015/1118 18011KT 6SM -SHRA BR SCT009 OVC011
     FM101630 19014G19KT 5SM -RA BR SCT006 BKN008 OVC010
     FM102200 21009KT 4SM -RA BR BKN008 OVC014
     FM110100 23007KT 5SM -SHRA BR BKN010 OVC016
     FM110300 26009KT 6SM BR VCSH SCT012 BKN018 OVC030
     FM110600 27011KT P6SM FEW015 BKN020 OVC035
     FM111500 30006KT P6SM FEW018 SCT028 BKN050=

USA.gov is the U.S. government's official web portal to all federal, state and local government web resources and services.